createdAt,value
2022-11-16T00:01:46.274Z,25.5
2022-11-16T00:07:24.636Z,25.3
2022-11-16T00:12:30.701Z,25.4
2022-11-16T00:17:52.611Z,25.8
2022-11-16T00:23:29.901Z,26
2022-11-16T00:29:07.220Z,25.8
2022-11-16T00:34:28.940Z,25.5
2022-11-16T00:39:36.127Z,25.2
2022-11-16T00:45:12.870Z,25.1
2022-11-16T00:50:50.005Z,24.9
2022-11-16T00:56:27.231Z,24.8
2022-11-16T01:01:48.937Z,24.6
2022-11-16T01:06:55.177Z,24.9
2022-11-16T01:12:18.642Z,25.3
2022-11-16T01:17:55.427Z,25.5
2022-11-16T01:23:17.947Z,25.2
2022-11-16T01:28:55.729Z,24.8
2022-11-16T01:34:31.543Z,24.7
2022-11-16T01:40:09.929Z,24.4
2022-11-16T01:45:47.105Z,24.4
2022-11-16T01:51:08.754Z,24.3
2022-11-16T01:55:59.725Z,24.3
2022-11-16T02:01:22.510Z,24.6
2022-11-16T02:06:43.478Z,24.9
2022-11-16T02:11:50.313Z,25.1
2022-11-16T02:17:27.016Z,24.8
2022-11-16T02:23:04.612Z,24.4
2022-11-16T02:28:41.763Z,24.3
2022-11-16T02:34:18.836Z,24.1
2022-11-16T02:39:40.776Z,24.1
2022-11-16T02:45:16.857Z,23.9
2022-11-16T02:50:23.631Z,24
2022-11-16T02:55:45.251Z,24.3
2022-11-16T03:01:25.883Z,24.7
2022-11-16T03:07:03.052Z,24.8
2022-11-16T03:12:39.281Z,24.4
2022-11-16T03:18:17.286Z,24.1
2022-11-16T03:23:55.201Z,24
2022-11-16T03:29:16.036Z,23.8
2022-11-16T03:34:54.303Z,23.8
2022-11-16T03:40:32.067Z,23.6
2022-11-16T03:45:37.751Z,23.9
2022-11-16T03:50:59.152Z,24.1
2022-11-16T03:56:40.522Z,24.4
2022-11-16T04:01:31.538Z,24.4
2022-11-16T04:07:08.641Z,24.4
2022-11-16T04:12:46.646Z,24.7
2022-11-16T04:18:23.508Z,24.4
2022-11-16T04:23:44.041Z,24.1
2022-11-16T04:29:22.298Z,23.9
2022-11-16T04:34:59.420Z,23.7
2022-11-16T04:40:36.521Z,23.6
2022-11-16T04:46:14.147Z,23.5
2022-11-16T04:51:35.896Z,23.6
2022-11-16T04:56:57.747Z,23.9
2022-11-16T05:02:05.150Z,24.3
2022-11-16T05:07:33.473Z,24.4
2022-11-16T05:12:57.476Z,24.1
2022-11-16T05:18:18.927Z,23.8
2022-11-16T05:23:40.592Z,23.7
2022-11-16T05:28:47.466Z,23.4
2022-11-16T05:34:09.563Z,23.4
2022-11-16T05:39:15.969Z,23.3
2022-11-16T05:44:37.156Z,23.4
2022-11-16T05:50:14.991Z,23.7
2022-11-16T05:55:52.163Z,24.3
2022-11-16T06:00:57.670Z,24.1
2022-11-16T06:06:36.609Z,23.8
2022-11-16T06:12:14.609Z,23.5
2022-11-16T06:17:59.193Z,23.4
2022-11-16T06:23:49.000Z,23.1
2022-11-16T06:29:31.177Z,23.1
2022-11-16T06:34:58.372Z,23.2
2022-11-16T06:40:38.886Z,23.4
2022-11-16T06:46:16.231Z,23.9
2022-11-16T06:51:56.956Z,24.1
2022-11-16T06:58:34.591Z,23.7
2022-11-16T07:04:15.161Z,23.4
2022-11-16T07:09:54.220Z,23.3
2022-11-16T07:15:36.547Z,23.1
2022-11-16T07:21:17.745Z,23.1
2022-11-16T07:26:25.820Z,23.1
2022-11-16T07:32:08.652Z,23.3
2022-11-16T07:37:46.426Z,23.8
2022-11-16T07:43:26.402Z,24.1
2022-11-16T07:49:33.591Z,23.8
2022-11-16T07:55:10.815Z,23.4
2022-11-16T08:00:56.448Z,23.3
2022-11-16T08:06:39.504Z,23.1
2022-11-16T08:12:18.975Z,23
2022-11-16T08:17:41.956Z,23
2022-11-16T08:23:21.190Z,23.3
2022-11-16T08:29:02.490Z,23.8
2022-11-16T08:34:25.643Z,24.1
2022-11-16T08:40:11.383Z,23.7
2022-11-16T08:45:38.432Z,23.4
2022-11-16T08:52:46.126Z,23.3
2022-11-16T08:58:24.466Z,23.2
2022-11-16T09:04:04.136Z,23.4
2022-11-16T09:09:43.049Z,23.9
2022-11-16T09:16:41.253Z,23.9
2022-11-16T09:22:24.572Z,23.6
2022-11-16T09:28:03.780Z,23.4
2022-11-16T09:33:27.195Z,23.3
2022-11-16T09:46:48.295Z,23.9
2022-11-16T09:53:55.413Z,24
2022-11-16T09:59:49.025Z,23.6
2022-11-16T10:05:32.505Z,23.4
2022-11-16T10:11:11.408Z,23.3
2022-11-16T10:16:50.696Z,23.1
2022-11-16T10:22:29.136Z,23.1
2022-11-16T10:27:56.126Z,22.9
2022-11-16T10:33:27.258Z,22.8
2022-11-16T10:39:06.617Z,22.8
2022-11-16T10:44:36.612Z,22.7
2022-11-16T10:50:04.553Z,22.6
2022-11-16T10:55:48.956Z,22.8
2022-11-16T11:01:35.418Z,23.1
2022-11-16T11:07:15.782Z,23.7
2022-11-16T11:12:57.867Z,23.8
2022-11-16T11:18:43.717Z,23.4
2022-11-16T11:24:59.206Z,23.3
2022-11-16T11:30:37.566Z,23.1
2022-11-16T11:36:22.728Z,23.1
2022-11-16T11:43:35.514Z,23.4
2022-11-16T11:50:26.061Z,23.9
2022-11-16T11:56:09.411Z,23.5
2022-11-16T12:01:37.198Z,23.3
2022-11-16T12:07:01.212Z,23.2
2022-11-16T12:12:47.333Z,23.1
2022-11-16T12:18:25.582Z,23.2
2022-11-16T12:24:10.933Z,23.7
2022-11-16T12:29:52.101Z,23.9
2022-11-16T12:35:30.610Z,23.6
2022-11-16T12:41:12.821Z,23.4
2022-11-16T12:46:55.414Z,23.2
2022-11-16T12:52:38.741Z,23.1
2022-11-16T12:58:34.659Z,23.3
2022-11-16T13:04:13.768Z,23.9
2022-11-16T13:09:57.259Z,23.8
2022-11-16T13:16:07.079Z,23.5
2022-11-16T13:21:51.647Z,23.3
2022-11-16T13:27:30.416Z,23.2
2022-11-16T13:33:09.227Z,23.2
2022-11-16T13:38:54.688Z,23.4
2022-11-16T13:44:32.406Z,23.9
2022-11-16T13:50:54.590Z,23.8
2022-11-16T13:58:25.955Z,23.4
2022-11-16T14:04:08.537Z,23.3
2022-11-16T14:09:33.140Z,23.1
2022-11-16T14:15:18.764Z,23.2
2022-11-16T14:20:41.815Z,23.7
2022-11-16T14:26:20.121Z,24.1
2022-11-16T14:32:01.896Z,23.7
2022-11-16T14:37:45.688Z,23.4
2022-11-16T14:43:36.325Z,23.3
2022-11-16T14:48:59.378Z,23.1
2022-11-16T14:54:39.223Z,23.2
2022-11-16T15:00:17.938Z,23.6
2022-11-16T15:06:04.340Z,24.1
2022-11-16T15:11:26.960Z,23.7
2022-11-16T15:16:49.672Z,23.4
2022-11-16T15:22:01.733Z,23.3
2022-11-16T15:27:53.537Z,23.2
2022-11-16T15:33:37.600Z,23.1
2022-11-16T15:39:20.823Z,23.4
2022-11-16T15:45:32.562Z,24
2022-11-16T15:50:58.910Z,23.7
2022-11-16T15:56:08.492Z,23.4
2022-11-16T16:01:47.192Z,23.3
2022-11-16T16:07:10.437Z,23.1
2022-11-16T16:12:17.735Z,23.1
2022-11-16T16:17:40.616Z,23.3
2022-11-16T16:23:24.054Z,23.8
2022-11-16T16:28:53.445Z,23.8
2022-11-16T16:34:16.462Z,23.4
2022-11-16T16:39:43.753Z,23.3
2022-11-16T16:45:09.425Z,23.1
2022-11-16T16:50:41.312Z,23
2022-11-16T16:55:54.297Z,23.2
2022-11-16T17:01:22.485Z,23.6
2022-11-16T17:06:51.045Z,23.9
2022-11-16T17:12:18.533Z,23.6
2022-11-16T17:17:49.937Z,23.3
2022-11-16T17:23:16.927Z,23.2
2022-11-16T17:28:57.239Z,23.1
2022-11-16T17:34:07.295Z,23.1
2022-11-16T17:39:48.418Z,23.4
2022-11-16T17:45:31.013Z,23.8
2022-11-16T17:50:41.386Z,23.5
2022-11-16T17:56:26.663Z,23.3
2022-11-16T18:02:03.345Z,23.1
2022-11-16T18:07:53.774Z,23
2022-11-16T18:13:23.623Z,23
2022-11-16T18:19:27.569Z,23.4
2022-11-16T18:25:06.259Z,23.9
2022-11-16T18:30:44.728Z,23.5
2022-11-16T18:35:52.850Z,23.3
2022-11-16T18:41:00.146Z,23.1
2022-11-16T18:46:43.060Z,23
2022-11-16T18:52:24.962Z,23
2022-11-16T18:57:55.008Z,23.1
2022-11-16T19:04:01.817Z,23.8
2022-11-16T19:09:46.362Z,23.7
2022-11-16T19:15:08.826Z,23.4
2022-11-16T19:21:25.090Z,23.2
2022-11-16T19:26:32.750Z,23.1
2022-11-16T19:32:11.573Z,22.9
2022-11-16T19:37:37.696Z,23.1
2022-11-16T19:43:15.424Z,23.6
2022-11-16T19:48:38.067Z,23.7
2022-11-16T19:54:08.736Z,23.3
2022-11-16T19:59:47.271Z,23.2
2022-11-16T20:05:26.574Z,23.1
2022-11-16T20:10:49.667Z,22.9
2022-11-16T20:16:27.688Z,22.9
2022-11-16T20:22:05.889Z,23.2
2022-11-16T20:27:45.076Z,23.8
2022-11-16T20:33:29.241Z,23.6
2022-11-16T20:38:52.131Z,23.3
2022-11-16T20:44:16.471Z,23.1
2022-11-16T20:49:39.135Z,23
2022-11-16T20:55:22.124Z,23
2022-11-16T21:01:06.924Z,23.3
2022-11-16T21:06:45.714Z,23.9
2022-11-16T21:12:24.708Z,23.6
2022-11-16T21:18:04.998Z,23.3
2022-11-16T21:24:18.591Z,23.1
2022-11-16T21:29:47.754Z,22.9
2022-11-16T21:35:30.630Z,23
2022-11-16T21:41:09.003Z,23.3
2022-11-16T21:46:31.691Z,23.9
2022-11-16T21:52:27.998Z,23.7
2022-11-16T21:57:51.313Z,23.5
2022-11-16T22:03:29.822Z,23.3
2022-11-16T22:08:58.767Z,23.3
2022-11-16T22:14:36.968Z,23.1
2022-11-16T22:19:59.517Z,23.3
2022-11-16T22:25:24.151Z,23.9
2022-11-16T22:31:37.971Z,23.8
2022-11-16T22:37:16.038Z,23.6
2022-11-16T22:42:58.393Z,23.4
2022-11-16T22:48:39.244Z,23.3
2022-11-16T22:54:02.101Z,23.3
2022-11-16T22:59:24.521Z,23.3
2022-11-16T23:05:03.397Z,23.8
2022-11-16T23:10:45.282Z,23.8
2022-11-16T23:16:09.884Z,23.6
2022-11-16T23:21:51.317Z,23.4
2022-11-16T23:27:30.017Z,23.3
2022-11-16T23:33:14.798Z,23.2
2022-11-16T23:38:53.613Z,23.2
2022-11-16T23:44:16.111Z,23.8
2022-11-16T23:49:38.352Z,23.9
2022-11-16T23:55:01.391Z,23.6
